• Join FlightAware (Why Join?)
  • Login
  • US Flag 
11:07PM EDT


 

Airport Tracker/Info


-or-


 

Live Flight TrackerFlight Track Log ✈ N901TS ✈ 12-Feb-2014 ✈ KMLI - K81

Flight Track Log - Related Links

Times and Time Zones

All times are in EST time to prevent confusion due to time zone crossing. See the N901TS flight status page for this flight to view local times or setup timezone preferences in your user account.

Time Position Orientation Groundspeed Altitude Reporting Facility
EST Latitude Longitude Course Direction KTS MPH feet Rate Location/Type
05:48PM 41.4333 -90.5875 258° West 139 160 3,800  Level Kansas City Center
05:49PM 41.4244 -90.6447 258° West 131 151 6,100 1,800 Climbing Chicago Center
05:50PM 41.4006 -90.6836 231° Southwest 132 152 7,700 1,620 Climbing Chicago Center
05:51PM 41.3758 -90.7253 232° Southwest 142 163 9,500 1,560 Climbing Chicago Center
05:52PM 41.3472 -90.7694 229° Southwest 151 174 11,000 1,440 Climbing Chicago Center
05:53PM 41.3158 -90.8214 231° Southwest 169 194 12,500 1,500 Climbing Chicago Center
05:54PM 41.2769 -90.8825 230° Southwest 179 206 14,100 1,500 Climbing Chicago Center
05:55PM 41.2431 -90.9361 230° Southwest 186 214 15,700 1,380 Climbing Chicago Center
05:56PM 41.2081 -90.9894 229° Southwest 190 219 17,000 1,200 Climbing Chicago Center
05:57PM 41.1728 -91.0447 230° Southwest 197 227 18,300 1,200 Climbing Chicago Center
05:58PM 41.1381 -91.1006 230° Southwest 198 228 19,600 1,140 Climbing Chicago Center
05:59PM 41.1017 -91.1581 230° Southwest 202 232 20,700 960 Climbing Chicago Center
06:00PM 41.0553 -91.2294 229° Southwest 212 244 21,700 840 Climbing Chicago Center
06:01PM 41.0139 -91.2944 230° Southwest 228 262 22,500 600 Climbing Chicago Center
06:03PM 40.9269 -91.4314 230° Southwest 252 290 23,600 480 Climbing Chicago Center
06:04PM 40.8675 -91.5225 229° Southwest 272 313 24,000 180 Climbing Chicago Center
06:06PM 40.8150 -91.6028 229° Southwest 289 333 24,000  Level Chicago Center
06:07PM 40.7603 -91.6867 229° Southwest 301 346 24,000  Level Chicago Center
06:08PM 40.7053 -91.7711 229° Southwest 304 350 24,000  Level Chicago Center
06:09PM 40.6508 -91.8528 229° Southwest 300 345 24,000  Level Chicago Center
06:10PM 40.5953 -91.9364 229° Southwest 303 349 24,000  Level Kansas City Center
06:11PM 40.5408 -92.0192 229° Southwest 302 348 24,000  Level Kansas City Center
06:12PM 40.4744 -92.1192 229° Southwest 303 349 24,000  Level Kansas City Center
06:13PM 40.4192 -92.2033 229° Southwest 304 350 24,000  Level Kansas City Center
06:14PM 40.3631 -92.2897 230° Southwest 310 357 24,000  Level Chicago Center
06:15PM 40.3064 -92.3750 229° Southwest 309 356 24,000  Level Chicago Center
06:16PM 40.2489 -92.4617 229° Southwest 310 357 24,000  Level Chicago Center
06:17PM 40.1797 -92.5653 229° Southwest 308 354 24,000  Level Chicago Center
06:18PM 40.1278 -92.6411 228° Southwest 310 357 24,000  Level Kansas City Center
06:19PM 40.0636 -92.7356 228° Southwest 310 357 24,000 -240 Level Kansas City Center
06:20PM 40.0061 -92.8214 229° Southwest 316 364 23,600 -480 Descending Kansas City Center
06:21PM 39.9464 -92.9103 229° Southwest 323 372 23,100 -720 Descending Kansas City Center
06:22PM 39.8864 -92.9964 228° Southwest 323 372 22,200 -960 Descending Kansas City Center
06:23PM 39.8292 -93.0825 229° Southwest 318 366 21,100 -1,080 Descending Kansas City Center
06:24PM 39.7572 -93.1847 228° Southwest 321 369 20,000 -1,140 Descending Kansas City Center
06:25PM 39.7006 -93.2675 228° Southwest 312 359 18,800 -1,320 Descending Kansas City Center
06:26PM 39.6481 -93.3436 228° Southwest 293 337 17,300 -1,440 Descending Kansas City Center
06:27PM 39.5986 -93.4158 228° Southwest 274 315 15,900 -1,320 Descending Kansas City Center
06:28PM 39.5489 -93.4886 228° Southwest 273 314 14,600 -1,260 Descending Kansas City Center
06:29PM 39.4981 -93.5617 228° Southwest 274 315 13,400 -1,320 Descending Kansas City Center
06:30PM 39.4394 -93.6478 229° Southwest 267 307 11,900 -1,500 Descending Kansas City Center
06:31PM 39.3917 -93.7169 228° Southwest 260 299 10,300 -1,020 Descending Kansas City Center
06:32PM 39.3425 -93.7883 228° Southwest 244 281 9,900 -180 Descending Kansas City Center
06:33PM 39.3000 -93.8486 228° Southwest 237 273 10,000  Climbing Kansas City Center
06:34PM 39.2511 -93.9206 229° Southwest 239 275 10,000  Level Kansas City Center
06:35PM 39.2089 -93.9808 228° Southwest 237 273 10,000  Level Kansas City Center
06:36PM 39.1658 -94.0422 228° Southwest 240 276 10,000  Level Kansas City Center
06:38PM 39.1158 -94.1128 228° Southwest 239 275 10,000  Level Kansas City Center
06:39PM 39.0725 -94.1753 228° Southwest 242 278 10,000  Level Kansas City Center
06:40PM 39.0214 -94.2472 228° Southwest 243 280 10,000  Level Kansas City Center
06:41PM 38.9769 -94.3100 228° Southwest 247 284 10,000 -60 Level Kansas City Center
06:42PM 38.9256 -94.3842 228° Southwest 248 285 9,900  Descending Kansas City Center
06:43PM 38.8797 -94.4478 227° Southwest 251 289 10,000 -180 Climbing Kansas City Center
06:44PM 38.8269 -94.5217 227° Southwest 252 290 9,600 -780 Descending Kansas City Center
06:45PM 38.7886 -94.5947 236° Southwest 257 296 8,500 -1,500 Descending Kansas City Center
06:46PM 38.7461 -94.6758 236° Southwest 247 284 6,500 -1,980 Descending Kansas City Center
06:47PM 38.7114 -94.7414 236° Southwest 235 270 4,500 -1,800 Descending Kansas City Center
06:48PM 38.6717 -94.7897 224° Southwest 208 239 2,900 -960 Descending Kansas City Center
06:49PM 38.6267 -94.8339 217° Southwest 185 213 2,600 -300 Descending Kansas City Center
06:50PM 38.5914 -94.8700 219° Southwest 171 197 2,300 -600 Descending Kansas City Center
06:51PM 38.5597 -94.9008 217° Southwest 160 184 1,400 -900 Descending Kansas City Center